Terminal Aerodrome Forecast
Issued by NWS Wakefield, VA

Home | Current Version | Previous Version | Text Only | Print | Product List | Glossary On
Versions: 1 2 3 4 5 6 7 8 9 10 11 12 13 14 15 16 17 18 19
729
FTUS41 KAKQ 300541
TAFORF
TAF
KORF 300541Z 3006/3106 18006KT P6SM -SHRADZ BKN050 BKN200
     FM301400 VRB06KT 5SM -RA BR BKN010 BKN050 OVC150
     FM310000 10004KT P6SM -RA BKN020 OVC070=

USA.gov is the U.S. government's official web portal to all federal, state and local government web resources and services.